sensor_id;sensor_type;location;lat;lon;timestamp;P1;durP1;ratioP1;P2;durP2;ratioP2
40649;SDS011;26342;42.826;23.992;2023-12-07T00:00:33;33.95;;;13.68;;
40649;SDS011;26342;42.826;23.992;2023-12-07T00:02:59;29.25;;;13.70;;
40649;SDS011;26342;42.826;23.992;2023-12-07T00:05:24;29.08;;;12.57;;
40649;SDS011;26342;42.826;23.992;2023-12-07T00:07:50;26.30;;;14.25;;
40649;SDS011;26342;42.826;23.992;2023-12-07T00:10:16;32.88;;;14.35;;
40649;SDS011;26342;42.826;23.992;2023-12-07T00:12:41;22.52;;;11.25;;
40649;SDS011;26342;42.826;23.992;2023-12-07T00:15:08;25.05;;;12.13;;
40649;SDS011;26342;42.826;23.992;2023-12-07T00:17:33;24.27;;;13.50;;
40649;SDS011;26342;42.826;23.992;2023-12-07T00:19:59;18.33;;;12.02;;
40649;SDS011;26342;42.826;23.992;2023-12-07T00:22:25;25.38;;;11.88;;
40649;SDS011;26342;42.826;23.992;2023-12-07T00:24:51;17.52;;;9.93;;
40649;SDS011;26342;42.826;23.992;2023-12-07T00:27:17;20.25;;;10.20;;
40649;SDS011;26342;42.826;23.992;2023-12-07T00:29:43;18.92;;;9.85;;
40649;SDS011;26342;42.826;23.992;2023-12-07T00:32:08;23.55;;;10.63;;
40649;SDS011;26342;42.826;23.992;2023-12-07T00:34:33;23.40;;;11.15;;
40649;SDS011;26342;42.826;23.992;2023-12-07T00:36:59;17.50;;;9.52;;
40649;SDS011;26342;42.826;23.992;2023-12-07T00:39:24;17.45;;;9.85;;
40649;SDS011;26342;42.826;23.992;2023-12-07T00:41:50;22.98;;;12.30;;
40649;SDS011;26342;42.826;23.992;2023-12-07T00:44:15;23.60;;;11.77;;
40649;SDS011;26342;42.826;23.992;2023-12-07T00:46:41;24.63;;;10.27;;
40649;SDS011;26342;42.826;23.992;2023-12-07T00:49:06;26.23;;;12.00;;
40649;SDS011;26342;42.826;23.992;2023-12-07T00:51:31;17.15;;;10.18;;
40649;SDS011;26342;42.826;23.992;2023-12-07T00:53:57;31.23;;;12.65;;
40649;SDS011;26342;42.826;23.992;2023-12-07T00:56:23;14.23;;;8.27;;
40649;SDS011;26342;42.826;23.992;2023-12-07T00:58:49;14.27;;;7.75;;
40649;SDS011;26342;42.826;23.992;2023-12-07T01:01:14;22.98;;;10.15;;
40649;SDS011;26342;42.826;23.992;2023-12-07T01:03:40;16.08;;;7.57;;
40649;SDS011;26342;42.826;23.992;2023-12-07T01:06:06;18.48;;;7.78;;
40649;SDS011;26342;42.826;23.992;2023-12-07T01:08:32;22.10;;;8.50;;
40649;SDS011;26342;42.826;23.992;2023-12-07T01:10:57;12.38;;;7.07;;
40649;SDS011;26342;42.826;23.992;2023-12-07T01:13:23;12.90;;;6.90;;
40649;SDS011;26342;42.826;23.992;2023-12-07T01:15:48;13.70;;;7.30;;
40649;SDS011;26342;42.826;23.992;2023-12-07T01:18:14;11.80;;;5.68;;
40649;SDS011;26342;42.826;23.992;2023-12-07T01:20:39;10.80;;;5.75;;
40649;SDS011;26342;42.826;23.992;2023-12-07T01:23:05;12.35;;;7.68;;
40649;SDS011;26342;42.826;23.992;2023-12-07T01:25:30;14.73;;;6.22;;
40649;SDS011;26342;42.826;23.992;2023-12-07T01:27:56;17.85;;;8.30;;
40649;SDS011;26342;42.826;23.992;2023-12-07T01:30:22;13.40;;;6.40;;
40649;SDS011;26342;42.826;23.992;2023-12-07T01:32:47;13.57;;;8.68;;
40649;SDS011;26342;42.826;23.992;2023-12-07T01:35:13;21.02;;;7.70;;
40649;SDS011;26342;42.826;23.992;2023-12-07T01:37:38;20.65;;;8.57;;
40649;SDS011;26342;42.826;23.992;2023-12-07T01:40:05;10.02;;;6.63;;
40649;SDS011;26342;42.826;23.992;2023-12-07T01:42:34;12.13;;;6.60;;
40649;SDS011;26342;42.826;23.992;2023-12-07T01:45:00;19.48;;;9.65;;
40649;SDS011;26342;42.826;23.992;2023-12-07T01:47:25;17.52;;;7.07;;
40649;SDS011;26342;42.826;23.992;2023-12-07T01:49:51;15.90;;;9.43;;
40649;SDS011;26342;42.826;23.992;2023-12-07T01:52:17;25.50;;;8.52;;
40649;SDS011;26342;42.826;23.992;2023-12-07T01:54:47;16.17;;;8.65;;
40649;SDS011;26342;42.826;23.992;2023-12-07T01:57:12;22.70;;;8.48;;
40649;SDS011;26342;42.826;23.992;2023-12-07T01:59:38;16.52;;;8.63;;
40649;SDS011;26342;42.826;23.992;2023-12-07T02:02:04;12.30;;;7.50;;
40649;SDS011;26342;42.826;23.992;2023-12-07T02:04:29;12.23;;;6.78;;
40649;SDS011;26342;42.826;23.992;2023-12-07T02:06:56;12.32;;;6.97;;
40649;SDS011;26342;42.826;23.992;2023-12-07T02:09:23;12.38;;;6.90;;
40649;SDS011;26342;42.826;23.992;2023-12-07T02:11:48;15.40;;;9.15;;
40649;SDS011;26342;42.826;23.992;2023-12-07T02:14:14;11.65;;;5.20;;
40649;SDS011;26342;42.826;23.992;2023-12-07T02:16:43;12.20;;;5.20;;
40649;SDS011;26342;42.826;23.992;2023-12-07T02:22:10;9.85;;;6.07;;
40649;SDS011;26342;42.826;23.992;2023-12-07T02:24:44;9.65;;;4.60;;
40649;SDS011;26342;42.826;23.992;2023-12-07T02:27:32;11.15;;;4.80;;
40649;SDS011;26342;42.826;23.992;2023-12-07T02:29:59;8.65;;;4.47;;
40649;SDS011;26342;42.826;23.992;2023-12-07T02:32:24;7.82;;;4.63;;
40649;SDS011;26342;42.826;23.992;2023-12-07T02:34:50;8.75;;;5.63;;
40649;SDS011;26342;42.826;23.992;2023-12-07T02:37:15;7.90;;;3.80;;
40649;SDS011;26342;42.826;23.992;2023-12-07T02:39:42;9.30;;;3.10;;
40649;SDS011;26342;42.826;23.992;2023-12-07T02:42:08;11.68;;;3.13;;
40649;SDS011;26342;42.826;23.992;2023-12-07T02:44:34;4.13;;;2.72;;
40649;SDS011;26342;42.826;23.992;2023-12-07T02:47:00;3.97;;;2.58;;
40649;SDS011;26342;42.826;23.992;2023-12-07T02:49:26;6.70;;;3.47;;
40649;SDS011;26342;42.826;23.992;2023-12-07T02:51:52;3.65;;;3.05;;
40649;SDS011;26342;42.826;23.992;2023-12-07T02:54:17;9.95;;;2.88;;
40649;SDS011;26342;42.826;23.992;2023-12-07T02:56:43;3.75;;;2.10;;
40649;SDS011;26342;42.826;23.992;2023-12-07T02:59:08;6.78;;;3.50;;
40649;SDS011;26342;42.826;23.992;2023-12-07T03:01:34;4.57;;;3.72;;
40649;SDS011;26342;42.826;23.992;2023-12-07T03:03:59;7.95;;;3.78;;
40649;SDS011;26342;42.826;23.992;2023-12-07T03:06:24;7.85;;;2.53;;
40649;SDS011;26342;42.826;23.992;2023-12-07T03:08:50;4.68;;;3.63;;
40649;SDS011;26342;42.826;23.992;2023-12-07T03:11:15;6.82;;;3.60;;
40649;SDS011;26342;42.826;23.992;2023-12-07T03:13:40;4.47;;;2.22;;
40649;SDS011;26342;42.826;23.992;2023-12-07T03:16:09;7.97;;;3.63;;
40649;SDS011;26342;42.826;23.992;2023-12-07T03:18:35;5.10;;;2.95;;
40649;SDS011;26342;42.826;23.992;2023-12-07T03:21:02;5.82;;;3.20;;
40649;SDS011;26342;42.826;23.992;2023-12-07T03:23:28;6.57;;;2.30;;
40649;SDS011;26342;42.826;23.992;2023-12-07T03:25:53;4.15;;;2.47;;
40649;SDS011;26342;42.826;23.992;2023-12-07T03:28:19;6.63;;;2.53;;
40649;SDS011;26342;42.826;23.992;2023-12-07T03:30:44;4.50;;;2.28;;
40649;SDS011;26342;42.826;23.992;2023-12-07T03:33:09;5.20;;;3.33;;
40649;SDS011;26342;42.826;23.992;2023-12-07T03:35:35;8.00;;;3.20;;
40649;SDS011;26342;42.826;23.992;2023-12-07T03:38:01;4.95;;;3.28;;
40649;SDS011;26342;42.826;23.992;2023-12-07T03:40:27;6.20;;;2.53;;
40649;SDS011;26342;42.826;23.992;2023-12-07T03:42:53;7.43;;;3.55;;
40649;SDS011;26342;42.826;23.992;2023-12-07T03:45:18;8.88;;;3.28;;
40649;SDS011;26342;42.826;23.992;2023-12-07T03:47:43;12.48;;;4.80;;
40649;SDS011;26342;42.826;23.992;2023-12-07T03:50:09;11.35;;;4.63;;
40649;SDS011;26342;42.826;23.992;2023-12-07T03:52:34;7.80;;;3.80;;
40649;SDS011;26342;42.826;23.992;2023-12-07T03:55:00;10.55;;;3.85;;
40649;SDS011;26342;42.826;23.992;2023-12-07T03:57:25;12.27;;;4.65;;
40649;SDS011;26342;42.826;23.992;2023-12-07T03:59:51;7.43;;;3.47;;
40649;SDS011;26342;42.826;23.992;2023-12-07T04:02:18;6.72;;;4.68;;
40649;SDS011;26342;42.826;23.992;2023-12-07T04:04:44;8.70;;;5.18;;
40649;SDS011;26342;42.826;23.992;2023-12-07T04:07:10;7.53;;;3.83;;
40649;SDS011;26342;42.826;23.992;2023-12-07T04:09:36;7.90;;;4.97;;
40649;SDS011;26342;42.826;23.992;2023-12-07T04:12:02;6.13;;;3.85;;
40649;SDS011;26342;42.826;23.992;2023-12-07T04:14:27;11.27;;;4.95;;
40649;SDS011;26342;42.826;23.992;2023-12-07T04:16:53;5.00;;;3.50;;
40649;SDS011;26342;42.826;23.992;2023-12-07T04:19:18;4.55;;;3.20;;
40649;SDS011;26342;42.826;23.992;2023-12-07T04:21:44;6.55;;;3.55;;
40649;SDS011;26342;42.826;23.992;2023-12-07T04:24:10;10.15;;;4.45;;
40649;SDS011;26342;42.826;23.992;2023-12-07T04:26:35;10.32;;;3.65;;
40649;SDS011;26342;42.826;23.992;2023-12-07T04:29:00;8.00;;;3.00;;
40649;SDS011;26342;42.826;23.992;2023-12-07T04:31:26;5.95;;;3.55;;
40649;SDS011;26342;42.826;23.992;2023-12-07T04:33:51;6.47;;;2.70;;
40649;SDS011;26342;42.826;23.992;2023-12-07T04:36:17;2.72;;;2.20;;
40649;SDS011;26342;42.826;23.992;2023-12-07T04:38:42;5.35;;;2.95;;
40649;SDS011;26342;42.826;23.992;2023-12-07T04:41:08;6.00;;;3.05;;
40649;SDS011;26342;42.826;23.992;2023-12-07T04:43:33;5.95;;;2.90;;
40649;SDS011;26342;42.826;23.992;2023-12-07T04:45:59;6.65;;;2.88;;
40649;SDS011;26342;42.826;23.992;2023-12-07T04:48:24;6.53;;;2.83;;
40649;SDS011;26342;42.826;23.992;2023-12-07T04:50:50;9.38;;;3.22;;
40649;SDS011;26342;42.826;23.992;2023-12-07T04:53:16;4.43;;;2.88;;
40649;SDS011;26342;42.826;23.992;2023-12-07T04:55:42;11.70;;;4.32;;
40649;SDS011;26342;42.826;23.992;2023-12-07T04:58:12;4.22;;;3.33;;
40649;SDS011;26342;42.826;23.992;2023-12-07T05:00:38;12.52;;;4.82;;
40649;SDS011;26342;42.826;23.992;2023-12-07T05:03:03;8.90;;;4.60;;
40649;SDS011;26342;42.826;23.992;2023-12-07T05:05:29;6.47;;;3.78;;
40649;SDS011;26342;42.826;23.992;2023-12-07T05:07:55;7.63;;;3.05;;
40649;SDS011;26342;42.826;23.992;2023-12-07T05:10:20;5.85;;;3.65;;
40649;SDS011;26342;42.826;23.992;2023-12-07T05:12:46;7.60;;;4.60;;
40649;SDS011;26342;42.826;23.992;2023-12-07T05:15:12;3.40;;;2.78;;
40649;SDS011;26342;42.826;23.992;2023-12-07T05:17:38;7.57;;;2.78;;
40649;SDS011;26342;42.826;23.992;2023-12-07T05:20:04;9.00;;;4.90;;
40649;SDS011;26342;42.826;23.992;2023-12-07T05:22:32;4.97;;;3.20;;
40649;SDS011;26342;42.826;23.992;2023-12-07T05:24:58;9.27;;;4.22;;
40649;SDS011;26342;42.826;23.992;2023-12-07T05:27:23;8.27;;;4.47;;
40649;SDS011;26342;42.826;23.992;2023-12-07T05:29:49;6.50;;;3.33;;
40649;SDS011;26342;42.826;23.992;2023-12-07T05:32:15;7.43;;;2.88;;
40649;SDS011;26342;42.826;23.992;2023-12-07T05:34:40;9.48;;;4.75;;
40649;SDS011;26342;42.826;23.992;2023-12-07T05:37:06;13.35;;;4.97;;
40649;SDS011;26342;42.826;23.992;2023-12-07T05:39:31;16.80;;;6.28;;
40649;SDS011;26342;42.826;23.992;2023-12-07T05:41:57;9.48;;;3.88;;
40649;SDS011;26342;42.826;23.992;2023-12-07T05:44:22;10.88;;;6.32;;
40649;SDS011;26342;42.826;23.992;2023-12-07T05:46:48;7.80;;;5.43;;
40649;SDS011;26342;42.826;23.992;2023-12-07T05:49:14;18.42;;;7.15;;
40649;SDS011;26342;42.826;23.992;2023-12-07T05:51:40;22.50;;;10.73;;
40649;SDS011;26342;42.826;23.992;2023-12-07T05:54:05;18.15;;;8.63;;
40649;SDS011;26342;42.826;23.992;2023-12-07T05:56:31;11.20;;;6.88;;
40649;SDS011;26342;42.826;23.992;2023-12-07T05:58:57;12.13;;;7.05;;
40649;SDS011;26342;42.826;23.992;2023-12-07T06:01:22;10.52;;;6.47;;
40649;SDS011;26342;42.826;23.992;2023-12-07T06:03:49;9.38;;;4.65;;
40649;SDS011;26342;42.826;23.992;2023-12-07T06:06:15;11.68;;;4.78;;
40649;SDS011;26342;42.826;23.992;2023-12-07T06:08:40;13.90;;;6.90;;
40649;SDS011;26342;42.826;23.992;2023-12-07T06:11:06;16.33;;;8.63;;
40649;SDS011;26342;42.826;23.992;2023-12-07T06:13:32;15.75;;;5.78;;
40649;SDS011;26342;42.826;23.992;2023-12-07T06:15:58;8.75;;;5.40;;
40649;SDS011;26342;42.826;23.992;2023-12-07T06:18:24;6.10;;;3.85;;
40649;SDS011;26342;42.826;23.992;2023-12-07T06:20:50;10.02;;;4.45;;
40649;SDS011;26342;42.826;23.992;2023-12-07T06:23:15;6.05;;;4.75;;
40649;SDS011;26342;42.826;23.992;2023-12-07T06:25:41;6.28;;;3.92;;
40649;SDS011;26342;42.826;23.992;2023-12-07T06:28:07;7.75;;;3.88;;
40649;SDS011;26342;42.826;23.992;2023-12-07T06:30:34;9.70;;;5.00;;
40649;SDS011;26342;42.826;23.992;2023-12-07T06:33:00;6.00;;;4.43;;
40649;SDS011;26342;42.826;23.992;2023-12-07T06:35:25;15.65;;;5.82;;
40649;SDS011;26342;42.826;23.992;2023-12-07T06:37:51;6.68;;;3.72;;
40649;SDS011;26342;42.826;23.992;2023-12-07T06:40:16;12.18;;;5.10;;
40649;SDS011;26342;42.826;23.992;2023-12-07T06:42:42;8.25;;;5.55;;
40649;SDS011;26342;42.826;23.992;2023-12-07T06:45:07;10.98;;;5.75;;
40649;SDS011;26342;42.826;23.992;2023-12-07T06:47:39;8.90;;;4.45;;
40649;SDS011;26342;42.826;23.992;2023-12-07T06:50:05;14.63;;;4.90;;
40649;SDS011;26342;42.826;23.992;2023-12-07T06:52:40;5.97;;;4.40;;
40649;SDS011;26342;42.826;23.992;2023-12-07T06:55:06;14.25;;;6.63;;
40649;SDS011;26342;42.826;23.992;2023-12-07T06:57:32;13.75;;;6.57;;
40649;SDS011;26342;42.826;23.992;2023-12-07T06:59:58;17.10;;;7.30;;
40649;SDS011;26342;42.826;23.992;2023-12-07T07:02:23;17.38;;;8.18;;
40649;SDS011;26342;42.826;23.992;2023-12-07T07:04:49;13.20;;;6.65;;
40649;SDS011;26342;42.826;23.992;2023-12-07T07:07:15;15.07;;;6.10;;
40649;SDS011;26342;42.826;23.992;2023-12-07T07:09:40;8.77;;;5.93;;
40649;SDS011;26342;42.826;23.992;2023-12-07T07:12:06;17.48;;;7.32;;
40649;SDS011;26342;42.826;23.992;2023-12-07T07:14:31;20.50;;;7.65;;
40649;SDS011;26342;42.826;23.992;2023-12-07T07:16:57;14.27;;;9.55;;
40649;SDS011;26342;42.826;23.992;2023-12-07T07:19:23;11.18;;;6.68;;
40649;SDS011;26342;42.826;23.992;2023-12-07T07:21:48;22.48;;;7.35;;
40649;SDS011;26342;42.826;23.992;2023-12-07T07:24:14;13.27;;;6.57;;
40649;SDS011;26342;42.826;23.992;2023-12-07T07:26:39;15.45;;;7.88;;
40649;SDS011;26342;42.826;23.992;2023-12-07T07:29:05;15.10;;;9.43;;
40649;SDS011;26342;42.826;23.992;2023-12-07T07:31:31;12.07;;;6.50;;
40649;SDS011;26342;42.826;23.992;2023-12-07T07:33:56;13.18;;;5.80;;
40649;SDS011;26342;42.826;23.992;2023-12-07T07:36:22;15.88;;;4.80;;
40649;SDS011;26342;42.826;23.992;2023-12-07T07:38:47;6.75;;;5.13;;
40649;SDS011;26342;42.826;23.992;2023-12-07T07:41:13;15.73;;;6.55;;
40649;SDS011;26342;42.826;23.992;2023-12-07T07:43:39;7.65;;;4.68;;
40649;SDS011;26342;42.826;23.992;2023-12-07T07:46:04;15.77;;;6.25;;
40649;SDS011;26342;42.826;23.992;2023-12-07T07:48:30;11.50;;;4.38;;
40649;SDS011;26342;42.826;23.992;2023-12-07T07:50:55;12.23;;;4.82;;
40649;SDS011;26342;42.826;23.992;2023-12-07T07:53:21;9.48;;;5.10;;
40649;SDS011;26342;42.826;23.992;2023-12-07T07:55:46;11.57;;;5.85;;
40649;SDS011;26342;42.826;23.992;2023-12-07T07:58:12;10.45;;;4.97;;
40649;SDS011;26342;42.826;23.992;2023-12-07T08:00:37;14.65;;;5.47;;
40649;SDS011;26342;42.826;23.992;2023-12-07T08:03:02;15.07;;;4.97;;
40649;SDS011;26342;42.826;23.992;2023-12-07T08:05:28;14.10;;;5.68;;
40649;SDS011;26342;42.826;23.992;2023-12-07T08:07:53;15.90;;;5.95;;
40649;SDS011;26342;42.826;23.992;2023-12-07T08:10:19;11.68;;;4.97;;
40649;SDS011;26342;42.826;23.992;2023-12-07T08:12:45;10.82;;;5.30;;
40649;SDS011;26342;42.826;23.992;2023-12-07T08:15:11;9.00;;;4.70;;
40649;SDS011;26342;42.826;23.992;2023-12-07T08:17:40;7.53;;;4.78;;
40649;SDS011;26342;42.826;23.992;2023-12-07T08:20:07;9.68;;;5.78;;
40649;SDS011;26342;42.826;23.992;2023-12-07T08:22:35;13.32;;;4.53;;
40649;SDS011;26342;42.826;23.992;2023-12-07T08:25:01;7.32;;;4.22;;
40649;SDS011;26342;42.826;23.992;2023-12-07T08:27:27;7.90;;;4.97;;
40649;SDS011;26342;42.826;23.992;2023-12-07T08:29:52;9.38;;;5.70;;
40649;SDS011;26342;42.826;23.992;2023-12-07T08:32:18;10.13;;;5.82;;
40649;SDS011;26342;42.826;23.992;2023-12-07T08:34:44;7.20;;;3.97;;
40649;SDS011;26342;42.826;23.992;2023-12-07T08:37:10;14.93;;;6.30;;
40649;SDS011;26342;42.826;23.992;2023-12-07T08:39:35;7.35;;;3.95;;
40649;SDS011;26342;42.826;23.992;2023-12-07T08:42:01;7.75;;;4.38;;
40649;SDS011;26342;42.826;23.992;2023-12-07T08:44:26;10.10;;;5.80;;
40649;SDS011;26342;42.826;23.992;2023-12-07T08:46:52;14.95;;;6.07;;
40649;SDS011;26342;42.826;23.992;2023-12-07T08:49:17;8.07;;;4.82;;
40649;SDS011;26342;42.826;23.992;2023-12-07T08:51:43;5.05;;;3.90;;
40649;SDS011;26342;42.826;23.992;2023-12-07T08:54:10;13.40;;;4.00;;
40649;SDS011;26342;42.826;23.992;2023-12-07T08:56:35;11.27;;;5.50;;
40649;SDS011;26342;42.826;23.992;2023-12-07T08:59:01;6.72;;;3.85;;
40649;SDS011;26342;42.826;23.992;2023-12-07T09:01:27;10.23;;;3.85;;
40649;SDS011;26342;42.826;23.992;2023-12-07T09:03:52;15.68;;;7.43;;
40649;SDS011;26342;42.826;23.992;2023-12-07T09:06:18;5.05;;;3.63;;
40649;SDS011;26342;42.826;23.992;2023-12-07T09:08:43;7.85;;;4.43;;
40649;SDS011;26342;42.826;23.992;2023-12-07T09:11:09;11.35;;;4.32;;
40649;SDS011;26342;42.826;23.992;2023-12-07T09:13:35;6.53;;;3.78;;
40649;SDS011;26342;42.826;23.992;2023-12-07T09:16:00;8.75;;;3.72;;
40649;SDS011;26342;42.826;23.992;2023-12-07T09:18:26;6.28;;;4.72;;
40649;SDS011;26342;42.826;23.992;2023-12-07T09:20:51;5.70;;;4.28;;
40649;SDS011;26342;42.826;23.992;2023-12-07T09:23:17;4.57;;;3.30;;
40649;SDS011;26342;42.826;23.992;2023-12-07T09:25:42;7.97;;;3.67;;
40649;SDS011;26342;42.826;23.992;2023-12-07T09:28:08;11.95;;;4.68;;
40649;SDS011;26342;42.826;23.992;2023-12-07T09:30:34;8.88;;;4.70;;
40649;SDS011;26342;42.826;23.992;2023-12-07T09:32:59;11.63;;;4.63;;
40649;SDS011;26342;42.826;23.992;2023-12-07T09:35:28;10.23;;;5.43;;
40649;SDS011;26342;42.826;23.992;2023-12-07T09:37:53;13.52;;;5.22;;
40649;SDS011;26342;42.826;23.992;2023-12-07T09:40:20;9.10;;;4.28;;
40649;SDS011;26342;42.826;23.992;2023-12-07T09:42:46;11.07;;;4.05;;
40649;SDS011;26342;42.826;23.992;2023-12-07T09:45:12;6.50;;;4.55;;
40649;SDS011;26342;42.826;23.992;2023-12-07T09:47:48;6.47;;;2.60;;
40649;SDS011;26342;42.826;23.992;2023-12-07T09:50:19;6.25;;;4.18;;
40649;SDS011;26342;42.826;23.992;2023-12-07T09:52:50;7.90;;;3.75;;
40649;SDS011;26342;42.826;23.992;2023-12-07T09:55:17;12.00;;;3.40;;
40649;SDS011;26342;42.826;23.992;2023-12-07T09:57:43;11.63;;;4.45;;
40649;SDS011;26342;42.826;23.992;2023-12-07T10:00:10;2.20;;;1.52;;
40649;SDS011;26342;42.826;23.992;2023-12-07T10:02:39;9.02;;;3.22;;
40649;SDS011;26342;42.826;23.992;2023-12-07T10:05:06;8.10;;;2.17;;
40649;SDS011;26342;42.826;23.992;2023-12-07T10:07:33;6.60;;;2.72;;
40649;SDS011;26342;42.826;23.992;2023-12-07T10:10:00;7.22;;;3.58;;
40649;SDS011;26342;42.826;23.992;2023-12-07T10:12:26;3.20;;;2.38;;
40649;SDS011;26342;42.826;23.992;2023-12-07T10:14:51;9.63;;;4.38;;
40649;SDS011;26342;42.826;23.992;2023-12-07T10:17:17;7.72;;;4.25;;
40649;SDS011;26342;42.826;23.992;2023-12-07T10:19:42;10.05;;;5.15;;
40649;SDS011;26342;42.826;23.992;2023-12-07T10:22:16;9.40;;;5.03;;
40649;SDS011;26342;42.826;23.992;2023-12-07T10:24:42;6.32;;;4.05;;
40649;SDS011;26342;42.826;23.992;2023-12-07T10:27:08;5.63;;;3.83;;
40649;SDS011;26342;42.826;23.992;2023-12-07T10:29:37;8.98;;;4.10;;
40649;SDS011;26342;42.826;23.992;2023-12-07T10:32:03;13.05;;;5.38;;
40649;SDS011;26342;42.826;23.992;2023-12-07T10:34:30;10.00;;;4.05;;
40649;SDS011;26342;42.826;23.992;2023-12-07T10:36:58;16.45;;;5.82;;
40649;SDS011;26342;42.826;23.992;2023-12-07T10:39:24;7.50;;;3.67;;
40649;SDS011;26342;42.826;23.992;2023-12-07T10:41:52;8.40;;;4.70;;
40649;SDS011;26342;42.826;23.992;2023-12-07T10:44:21;9.40;;;6.10;;
40649;SDS011;26342;42.826;23.992;2023-12-07T10:46:51;18.08;;;5.80;;
40649;SDS011;26342;42.826;23.992;2023-12-07T10:49:17;7.93;;;5.63;;
40649;SDS011;26342;42.826;23.992;2023-12-07T10:54:16;8.93;;;5.13;;
40649;SDS011;26342;42.826;23.992;2023-12-07T10:56:47;9.98;;;4.63;;
40649;SDS011;26342;42.826;23.992;2023-12-07T10:59:15;17.45;;;8.38;;
40649;SDS011;26342;42.826;23.992;2023-12-07T11:01:41;8.65;;;6.20;;
40649;SDS011;26342;42.826;23.992;2023-12-07T11:04:12;16.60;;;6.57;;
40649;SDS011;26342;42.826;23.992;2023-12-07T11:06:41;9.05;;;5.22;;
40649;SDS011;26342;42.826;23.992;2023-12-07T11:09:12;11.00;;;5.88;;
40649;SDS011;26342;42.826;23.992;2023-12-07T11:11:49;14.27;;;5.85;;
40649;SDS011;26342;42.826;23.992;2023-12-07T11:14:23;18.60;;;7.50;;
40649;SDS011;26342;42.826;23.992;2023-12-07T11:16:49;8.48;;;5.45;;
40649;SDS011;26342;42.826;23.992;2023-12-07T11:22:04;19.88;;;5.75;;
40649;SDS011;26342;42.826;23.992;2023-12-07T11:24:31;13.02;;;6.32;;
40649;SDS011;26342;42.826;23.992;2023-12-07T11:26:56;8.50;;;4.10;;
40649;SDS011;26342;42.826;23.992;2023-12-07T11:29:25;7.60;;;3.92;;
40649;SDS011;26342;42.826;23.992;2023-12-07T11:32:00;14.80;;;6.63;;
40649;SDS011;26342;42.826;23.992;2023-12-07T11:34:36;15.82;;;7.50;;
40649;SDS011;26342;42.826;23.992;2023-12-07T11:37:04;12.07;;;4.88;;
40649;SDS011;26342;42.826;23.992;2023-12-07T11:39:34;6.18;;;2.78;;
40649;SDS011;26342;42.826;23.992;2023-12-07T11:42:33;11.52;;;3.88;;
40649;SDS011;26342;42.826;23.992;2023-12-07T11:44:52;7.32;;;2.92;;
40649;SDS011;26342;42.826;23.992;2023-12-07T11:47:18;19.10;;;7.70;;
40649;SDS011;26342;42.826;23.992;2023-12-07T11:49:45;18.60;;;7.82;;
40649;SDS011;26342;42.826;23.992;2023-12-07T11:52:18;15.95;;;6.43;;
40649;SDS011;26342;42.826;23.992;2023-12-07T11:54:45;8.25;;;4.40;;
40649;SDS011;26342;42.826;23.992;2023-12-07T11:57:15;15.90;;;7.45;;
40649;SDS011;26342;42.826;23.992;2023-12-07T11:59:43;10.25;;;6.20;;
40649;SDS011;26342;42.826;23.992;2023-12-07T12:02:12;10.80;;;5.47;;
40649;SDS011;26342;42.826;23.992;2023-12-07T12:04:39;11.43;;;6.07;;
40649;SDS011;26342;42.826;23.992;2023-12-07T12:07:05;31.30;;;13.35;;
40649;SDS011;26342;42.826;23.992;2023-12-07T12:09:31;27.40;;;12.95;;
40649;SDS011;26342;42.826;23.992;2023-12-07T12:11:56;15.85;;;6.95;;
40649;SDS011;26342;42.826;23.992;2023-12-07T12:14:25;15.63;;;7.75;;
40649;SDS011;26342;42.826;23.992;2023-12-07T12:16:51;5.55;;;3.70;;
40649;SDS011;26342;42.826;23.992;2023-12-07T12:19:16;9.15;;;4.60;;
40649;SDS011;26342;42.826;23.992;2023-12-07T12:21:42;6.20;;;3.63;;
40649;SDS011;26342;42.826;23.992;2023-12-07T12:24:08;13.45;;;5.53;;
40649;SDS011;26342;42.826;23.992;2023-12-07T12:26:35;8.63;;;5.22;;
40649;SDS011;26342;42.826;23.992;2023-12-07T12:29:03;8.93;;;4.53;;
40649;SDS011;26342;42.826;23.992;2023-12-07T12:31:29;6.05;;;3.70;;
40649;SDS011;26342;42.826;23.992;2023-12-07T12:33:55;10.60;;;4.78;;
40649;SDS011;26342;42.826;23.992;2023-12-07T12:36:21;10.80;;;4.63;;
40649;SDS011;26342;42.826;23.992;2023-12-07T12:38:48;12.70;;;6.20;;
40649;SDS011;26342;42.826;23.992;2023-12-07T12:41:21;14.93;;;8.27;;
40649;SDS011;26342;42.826;23.992;2023-12-07T12:43:47;10.10;;;6.22;;
40649;SDS011;26342;42.826;23.992;2023-12-07T12:46:13;8.35;;;4.97;;
40649;SDS011;26342;42.826;23.992;2023-12-07T12:48:59;5.63;;;3.28;;
40649;SDS011;26342;42.826;23.992;2023-12-07T12:51:27;9.75;;;4.57;;
40649;SDS011;26342;42.826;23.992;2023-12-07T12:53:57;9.60;;;5.72;;
40649;SDS011;26342;42.826;23.992;2023-12-07T12:56:24;7.80;;;4.40;;
40649;SDS011;26342;42.826;23.992;2023-12-07T12:58:51;4.68;;;2.67;;
40649;SDS011;26342;42.826;23.992;2023-12-07T13:01:18;3.55;;;2.97;;
40649;SDS011;26342;42.826;23.992;2023-12-07T13:03:45;7.68;;;3.80;;
40649;SDS011;26342;42.826;23.992;2023-12-07T13:06:12;6.07;;;4.25;;
40649;SDS011;26342;42.826;23.992;2023-12-07T13:08:39;7.28;;;4.40;;
40649;SDS011;26342;42.826;23.992;2023-12-07T13:11:05;9.32;;;4.57;;
40649;SDS011;26342;42.826;23.992;2023-12-07T13:13:31;6.10;;;3.63;;
40649;SDS011;26342;42.826;23.992;2023-12-07T13:15:57;4.63;;;2.97;;
40649;SDS011;26342;42.826;23.992;2023-12-07T13:18:22;7.82;;;3.53;;
40649;SDS011;26342;42.826;23.992;2023-12-07T13:20:47;6.00;;;4.03;;
40649;SDS011;26342;42.826;23.992;2023-12-07T13:23:13;7.25;;;4.70;;
40649;SDS011;26342;42.826;23.992;2023-12-07T13:25:39;8.57;;;4.28;;
40649;SDS011;26342;42.826;23.992;2023-12-07T13:28:06;8.93;;;2.97;;
40649;SDS011;26342;42.826;23.992;2023-12-07T13:30:31;5.68;;;2.72;;
40649;SDS011;26342;42.826;23.992;2023-12-07T13:33:00;10.32;;;5.80;;
40649;SDS011;26342;42.826;23.992;2023-12-07T13:35:26;11.93;;;6.53;;
40649;SDS011;26342;42.826;23.992;2023-12-07T13:37:51;12.90;;;5.88;;
40649;SDS011;26342;42.826;23.992;2023-12-07T13:40:17;9.25;;;4.82;;
40649;SDS011;26342;42.826;23.992;2023-12-07T13:42:42;4.53;;;3.38;;
40649;SDS011;26342;42.826;23.992;2023-12-07T13:45:08;7.70;;;4.18;;
40649;SDS011;26342;42.826;23.992;2023-12-07T13:47:33;8.43;;;3.53;;
40649;SDS011;26342;42.826;23.992;2023-12-07T13:50:02;8.38;;;4.03;;
40649;SDS011;26342;42.826;23.992;2023-12-07T13:52:28;6.85;;;3.45;;
40649;SDS011;26342;42.826;23.992;2023-12-07T13:54:55;12.38;;;4.97;;
40649;SDS011;26342;42.826;23.992;2023-12-07T13:57:21;21.75;;;9.05;;
40649;SDS011;26342;42.826;23.992;2023-12-07T13:59:50;9.85;;;4.72;;
40649;SDS011;26342;42.826;23.992;2023-12-07T14:02:16;5.90;;;3.33;;
40649;SDS011;26342;42.826;23.992;2023-12-07T14:04:42;4.93;;;2.70;;
40649;SDS011;26342;42.826;23.992;2023-12-07T14:07:12;9.85;;;3.28;;
40649;SDS011;26342;42.826;23.992;2023-12-07T14:09:43;11.45;;;3.78;;
40649;SDS011;26342;42.826;23.992;2023-12-07T14:12:10;11.63;;;4.25;;
40649;SDS011;26342;42.826;23.992;2023-12-07T14:14:38;8.52;;;4.53;;
40649;SDS011;26342;42.826;23.992;2023-12-07T14:17:08;6.60;;;4.50;;
40649;SDS011;26342;42.826;23.992;2023-12-07T14:19:34;9.63;;;6.75;;
40649;SDS011;26342;42.826;23.992;2023-12-07T14:22:00;11.02;;;6.72;;
40649;SDS011;26342;42.826;23.992;2023-12-07T14:24:25;5.47;;;4.10;;
40649;SDS011;26342;42.826;23.992;2023-12-07T14:26:51;7.90;;;3.47;;
40649;SDS011;26342;42.826;23.992;2023-12-07T14:29:18;5.20;;;3.30;;
40649;SDS011;26342;42.826;23.992;2023-12-07T14:31:45;7.57;;;3.63;;